Uji, Japan
Current Conditions -  °F | °C
As of 3:00 PM on Thursday 23 Oct 2014 (Local Time) from RJOO Reporting Station
Few Clouds Few Clouds  
Wind Chill: 68°   Ceiling: Unl
Heat Index: 68°   Visibility: 6mi
Dew Point: 46°   Wind: 15mph
Humidity: 46%   Direction: 340°NNW
Pressure: 30"   Gusts: NA
Location:  34.9°N, 135.8°E
Report Text: RJOO 230600Z 34013KT 9999 FEW030 20/08 Q1016
Loading
Personal Weather Stations






























Interactive Weather Map
Tropical Storm Tracking
New forecast layout! Learn more

10-Day Weather Forecast

Advertisements
Track Severe Weather on mobile